Overview Statistics Trail Chart Weather Telemetry Raw packets
 

This is the latest recevied weather packets stored in our database for station/object KB1WCR. If no packets are shown the sender has not sent any weather packets the latest 10 day(s).

<< 45 46 47 48 49 50 51 >>
Time Temp. Humidity Pressure Rain* Wind** Luminosity Snow
1788097566 21.67° C 73% 1018.2 hPa 0 mm - 248 W/m² -
1788097261 20.56° C 78% 1018.3 hPa 0 mm - 388 W/m² -
1788096957 20° C 79% 1018.5 hPa 0 mm - 406 W/m² -
1788096652 19.44° C 80% 1018.5 hPa 0 mm - 222 W/m² -
1788096348 18.89° C 84% 1018.6 hPa 0 mm - 201 W/m² -
1788096043 18.89° C 84% 1018.5 hPa 0 mm - 159 W/m² -
1788095742 18.89° C 83% 1018.3 hPa 0 mm - 170 W/m² -
1788095437 18.33° C 86% 1018.5 hPa 0 mm - 197 W/m² -
1788095132 17.78° C 87% 1018.4 hPa 0 mm - 206 W/m² -
1788094828 17.78° C 86% 1018.5 hPa 0 mm - 155 W/m² -
1788094522 17.22° C 86% 1018.4 hPa 0 mm - 148 W/m² -
1788094221 16.67° C 88% 1018.8 hPa 0 mm - 156 W/m² -
1788093920 16.67° C 90% 1018.6 hPa 0 mm - 132 W/m² -
1788093616 16.67° C 92% 1018.8 hPa 0 mm - 121 W/m² -
1788093313 16.11° C 92% 1018.7 hPa 0 mm - 123 W/m² -
1788093008 15.56° C 94% 1019 hPa 0 mm - 115 W/m² -
1788092705 15.56° C 95% 1018.7 hPa 0 mm - 85 W/m² -
1788092400 15° C 96% 1018.8 hPa 0 mm - 67 W/m² -
1788092095 15° C 97% 1018.6 hPa 0 mm - 69 W/m² -
1788091789 15° C 96% 1018.9 hPa 0 mm - 68 W/m² -
1788091485 14.44° C 98% 1018.7 hPa 0 mm - 73 W/m² -
1788091181 13.89° C 98% 1018.9 hPa 0 mm - 52 W/m² -
1788090871 13.89° C 99% 1018.9 hPa 0 mm - 50 W/m² -
1788090566 13.89° C 99% 1018.7 hPa 0 mm - 48 W/m² -
1788090264 13.89° C 99% 1018.9 hPa 0 mm - 44 W/m² -

* Rain latest hour (hover to see other rain measurements)
** Current wind speed in m/s (hover to see current wind gust speed)